Time;durP1;ratioP1;P1;durP2;ratioP2;P2;SDS_P1;SDS_P2;PMS_P1;PMS_P2;Temp;Humidity;BMP_temperature;BMP_pressure;BME280_temperature;BME280_humidity;BME280_pressure;Samples;Min_cycle;Max_cycle;Signal;HPM_P1;HPM_P2
2022/05/16 00:00:43;;;;;;;5.25;1.35;;;;;;;;;;6187603;23;20012;-85
2022/05/16 00:03:09;;;;;;;3.67;1.90;;;;;;;;;;6186824;23;20009;-86
2022/05/16 00:05:35;;;;;;;3.08;1.58;;;;;;;;;;6187716;23;20009;-85
2022/05/16 00:08:01;;;;;;;2.63;1.70;;;;;;;;;;6186392;23;20051;-85
2022/05/16 00:10:27;;;;;;;4.72;1.52;;;;;;;;;;6187274;23;20327;-86
2022/05/16 00:12:53;;;;;;;3.15;1.58;;;;;;;;;;6188702;23;20008;-86
2022/05/16 00:15:21;;;;;;;3.78;1.60;;;;;;;;;;6211173;23;20009;-86
2022/05/16 00:17:48;;;;;;;7.43;2.20;;;;;;;;;;6187845;23;20013;-86
2022/05/16 00:20:14;;;;;;;1.60;1.42;;;;;;;;;;6211488;23;20011;-86
2022/05/16 00:22:40;;;;;;;6.63;1.90;;;;;;;;;;6187645;23;20001;-86
2022/05/16 00:25:07;;;;;;;2.03;1.40;;;;;;;;;;6210684;23;20016;-87
2022/05/16 00:27:34;;;;;;;6.05;2.10;;;;;;;;;;6211041;23;20001;-84
2022/05/16 00:30:10;;;;;;;5.85;1.80;;;;;;;;;;6188043;23;19997;-85
2022/05/16 00:32:36;;;;;;;3.58;1.73;;;;;;;;;;6187708;23;20040;-85
2022/05/16 00:35:03;;;;;;;3.10;1.67;;;;;;;;;;6187669;23;20092;-86
2022/05/16 00:37:30;;;;;;;7.10;2.00;;;;;;;;;;6211289;23;20039;-86
2022/05/16 00:39:56;;;;;;;4.07;1.95;;;;;;;;;;6210677;23;20309;-86
2022/05/16 00:42:22;;;;;;;5.50;1.77;;;;;;;;;;6187503;23;20005;-85
2022/05/16 00:44:48;;;;;;;7.80;1.60;;;;;;;;;;6220039;23;20013;-84
2022/05/16 00:47:14;;;;;;;5.10;1.55;;;;;;;;;;6211815;23;20313;-84
2022/05/16 00:49:45;;;;;;;7.22;1.83;;;;;;;;;;6211706;23;20001;-84
2022/05/16 00:52:15;;;;;;;3.45;1.60;;;;;;;;;;6188341;23;20031;-85
2022/05/16 00:54:43;;;;;;;6.63;1.80;;;;;;;;;;6187557;23;20020;-84
2022/05/16 00:57:11;;;;;;;12.43;2.17;;;;;;;;;;6211143;23;20036;-85
2022/05/16 00:59:38;;;;;;;2.25;1.70;;;;;;;;;;6211151;23;20009;-84
2022/05/16 01:04:48;;;;;;;3.25;1.48;;;;;;;;;;6187839;23;20020;-85
2022/05/16 01:07:21;;;;;;;5.45;1.55;;;;;;;;;;6211715;23;20001;-85
2022/05/16 01:09:47;;;;;;;4.85;1.88;;;;;;;;;;6188352;23;20454;-84
2022/05/16 01:12:13;;;;;;;4.13;1.60;;;;;;;;;;6211196;23;20068;-84
2022/05/16 01:14:54;;;;;;;3.92;1.45;;;;;;;;;;6209674;23;20407;-84
2022/05/16 01:17:21;;;;;;;7.07;1.50;;;;;;;;;;6189266;23;20351;-85
2022/05/16 01:19:47;;;;;;;4.97;1.63;;;;;;;;;;6189992;23;20428;-85
2022/05/16 01:22:23;;;;;;;6.55;2.25;;;;;;;;;;6189529;23;20001;-84
2022/05/16 01:24:49;;;;;;;4.70;2.25;;;;;;;;;;6187999;23;20005;-84
2022/05/16 01:27:15;;;;;;;5.80;1.60;;;;;;;;;;6188417;23;19997;-83
2022/05/16 01:29:42;;;;;;;5.60;1.73;;;;;;;;;;6190039;23;20016;-84
2022/05/16 01:32:10;;;;;;;4.60;1.77;;;;;;;;;;6213190;23;20040;-85
2022/05/16 01:40:19;;;;;;;3.55;1.88;;;;;;;;;;6189883;23;20064;-85
2022/05/16 01:42:45;;;;;;;4.25;1.65;;;;;;;;;;6190590;23;20005;-85
2022/05/16 01:45:11;;;;;;;2.28;1.73;;;;;;;;;;6189223;23;20008;-84
2022/05/16 01:47:37;;;;;;;4.93;1.67;;;;;;;;;;6190547;23;20021;-85
2022/05/16 01:50:03;;;;;;;4.70;1.50;;;;;;;;;;6212835;23;20027;-84
2022/05/16 01:52:29;;;;;;;3.30;1.48;;;;;;;;;;6213639;23;20012;-85
2022/05/16 01:54:56;;;;;;;3.38;1.85;;;;;;;;;;6213515;23;20012;-85
2022/05/16 01:57:22;;;;;;;6.53;1.73;;;;;;;;;;6192003;23;20028;-85
2022/05/16 01:59:48;;;;;;;3.65;1.73;;;;;;;;;;6192769;23;20036;-85
2022/05/16 02:02:13;;;;;;;5.05;2.00;;;;;;;;;;6208769;23;19996;-87
2022/05/16 02:04:39;;;;;;;6.72;1.60;;;;;;;;;;6238759;23;19997;-86
2022/05/16 02:07:05;;;;;;;4.63;1.50;;;;;;;;;;6214171;23;19996;-87
2022/05/16 02:09:31;;;;;;;2.80;1.70;;;;;;;;;;6213683;23;19993;-86
2022/05/16 02:11:57;;;;;;;4.00;1.90;;;;;;;;;;6237838;23;20001;-86
2022/05/16 02:14:23;;;;;;;3.78;1.90;;;;;;;;;;6214100;23;19993;-87
2022/05/16 02:16:49;;;;;;;5.30;1.80;;;;;;;;;;6214460;23;20020;-87
2022/05/16 02:19:16;;;;;;;4.85;2.00;;;;;;;;;;6238454;23;20005;-87
2022/05/16 02:24:39;;;;;;;3.75;1.70;;;;;;;;;;6214168;23;20004;-88
2022/05/16 02:27:08;;;;;;;2.75;1.60;;;;;;;;;;6214049;23;20001;-87
2022/05/16 02:29:34;;;;;;;5.50;1.70;;;;;;;;;;6214275;23;20041;-86
2022/05/16 02:32:01;;;;;;;2.28;1.60;;;;;;;;;;6214020;23;20032;-87
2022/05/16 02:34:27;;;;;;;3.05;1.65;;;;;;;;;;6214646;23;20009;-86
2022/05/16 02:36:53;;;;;;;3.40;1.95;;;;;;;;;;6214683;23;19997;-87
2022/05/16 02:39:19;;;;;;;3.53;1.40;;;;;;;;;;6214766;23;19997;-87
2022/05/16 02:41:46;;;;;;;3.70;1.80;;;;;;;;;;6239082;23;20016;-87
2022/05/16 02:44:12;;;;;;;7.25;1.70;;;;;;;;;;6239034;23;20077;-86
2022/05/16 02:46:38;;;;;;;3.00;1.52;;;;;;;;;;6214523;23;20023;-87
2022/05/16 02:49:05;;;;;;;2.00;1.60;;;;;;;;;;6238713;23;20017;-87
2022/05/16 02:51:31;;;;;;;3.78;1.60;;;;;;;;;;6237489;23;19997;-86
2022/05/16 02:53:57;;;;;;;5.65;1.50;;;;;;;;;;6237978;23;19993;-86
2022/05/16 02:56:23;;;;;;;3.58;2.25;;;;;;;;;;6214260;23;20054;-85
2022/05/16 02:58:49;;;;;;;2.67;2.03;;;;;;;;;;6238706;23;19999;-85
2022/05/16 03:01:15;;;;;;;2.10;1.80;;;;;;;;;;6214306;23;19989;-85
2022/05/16 03:03:42;;;;;;;5.28;1.92;;;;;;;;;;6238940;23;20033;-84
2022/05/16 03:06:08;;;;;;;2.83;1.80;;;;;;;;;;6213195;23;20024;-86
2022/05/16 03:08:35;;;;;;;8.63;2.67;;;;;;;;;;6213902;23;20013;-87
2022/05/16 03:11:01;;;;;;;4.95;2.17;;;;;;;;;;6214333;23;20013;-86
2022/05/16 03:13:27;;;;;;;2.50;1.88;;;;;;;;;;6238336;23;20005;-85
2022/05/16 03:15:53;;;;;;;7.68;2.30;;;;;;;;;;6214129;23;20009;-85
2022/05/16 03:18:19;;;;;;;5.07;1.85;;;;;;;;;;6237994;23;20099;-87
2022/05/16 03:20:45;;;;;;;3.60;1.90;;;;;;;;;;6239167;23;20001;-84
2022/05/16 03:23:11;;;;;;;6.03;2.08;;;;;;;;;;6215292;23;20001;-86
2022/05/16 03:25:39;;;;;;;2.83;2.00;;;;;;;;;;6215197;23;20005;-85
2022/05/16 03:28:06;;;;;;;3.33;2.15;;;;;;;;;;6213546;23;19992;-86
2022/05/16 03:30:32;;;;;;;6.25;2.95;;;;;;;;;;6214143;23;19985;-85
2022/05/16 03:32:58;;;;;;;8.90;2.88;;;;;;;;;;6214069;23;20050;-85
2022/05/16 03:35:24;;;;;;;6.22;2.45;;;;;;;;;;6214151;23;19997;-86
2022/05/16 03:37:50;;;;;;;8.07;2.47;;;;;;;;;;6213992;23;20001;-86
2022/05/16 03:43:01;;;;;;;6.93;2.72;;;;;;;;;;6214161;23;20055;-86
2022/05/16 03:45:27;;;;;;;6.38;2.47;;;;;;;;;;6213626;23;20001;-87
2022/05/16 03:47:53;;;;;;;9.05;2.67;;;;;;;;;;6237743;23;19993;-86
2022/05/16 03:50:19;;;;;;;6.53;3.50;;;;;;;;;;6237798;23;20008;-87
2022/05/16 03:52:45;;;;;;;10.95;3.63;;;;;;;;;;6213875;23;19989;-86
2022/05/16 03:55:13;;;;;;;6.88;2.53;;;;;;;;;;6213689;23;20024;-84
2022/05/16 03:57:40;;;;;;;5.30;2.83;;;;;;;;;;6213900;23;20000;-86
2022/05/16 04:00:09;;;;;;;8.05;2.95;;;;;;;;;;6213516;23;19993;-87
2022/05/16 04:02:37;;;;;;;5.80;2.85;;;;;;;;;;6213090;23;20008;-86
2022/05/16 04:05:03;;;;;;;8.00;3.13;;;;;;;;;;6238170;23;20001;-86
2022/05/16 04:07:29;;;;;;;8.23;2.80;;;;;;;;;;6213820;23;20004;-86
2022/05/16 04:09:55;;;;;;;9.25;2.88;;;;;;;;;;6213356;23;19993;-85
2022/05/16 04:12:21;;;;;;;11.43;3.25;;;;;;;;;;6213644;23;20084;-85
2022/05/16 04:14:49;;;;;;;7.88;3.08;;;;;;;;;;6238147;23;20008;-85
2022/05/16 04:17:15;;;;;;;6.45;2.88;;;;;;;;;;6237336;23;19989;-84
2022/05/16 04:19:41;;;;;;;5.90;2.85;;;;;;;;;;6215557;23;20466;-86
2022/05/16 04:22:08;;;;;;;7.55;2.55;;;;;;;;;;6184419;23;20505;-86
2022/05/16 04:24:34;;;;;;;8.30;2.70;;;;;;;;;;6183665;23;20012;-86
2022/05/16 04:27:01;;;;;;;10.18;3.10;;;;;;;;;;6186041;23;20008;-86
2022/05/16 04:29:27;;;;;;;8.55;3.33;;;;;;;;;;6183668;23;20020;-86
2022/05/16 04:31:53;;;;;;;6.05;2.92;;;;;;;;;;6185196;23;20032;-85
2022/05/16 04:34:19;;;;;;;6.05;2.72;;;;;;;;;;6185479;23;20005;-84
2022/05/16 04:36:45;;;;;;;5.00;2.67;;;;;;;;;;6186069;23;20001;-86
2022/05/16 04:39:11;;;;;;;11.52;3.08;;;;;;;;;;6185651;23;20012;-86
2022/05/16 04:44:22;;;;;;;8.60;3.00;;;;;;;;;;6187939;23;20360;-85
2022/05/16 04:46:48;;;;;;;9.02;2.92;;;;;;;;;;6186705;23;20001;-85
2022/05/16 04:49:14;;;;;;;5.22;3.45;;;;;;;;;;6186214;23;19997;-85
2022/05/16 04:51:43;;;;;;;8.93;2.85;;;;;;;;;;6186553;23;20009;-85
2022/05/16 04:54:09;;;;;;;7.05;3.03;;;;;;;;;;6209243;23;20028;-85
2022/05/16 04:56:36;;;;;;;10.93;2.88;;;;;;;;;;6185675;23;20420;-85
2022/05/16 04:59:02;;;;;;;8.50;2.75;;;;;;;;;;6210563;23;20016;-85
2022/05/16 05:01:28;;;;;;;3.67;2.33;;;;;;;;;;6210114;23;20041;-85
2022/05/16 05:03:56;;;;;;;4.13;2.28;;;;;;;;;;6184296;23;20012;-85
2022/05/16 05:06:22;;;;;;;7.32;2.75;;;;;;;;;;6185152;23;20043;-85
2022/05/16 05:08:48;;;;;;;5.00;2.63;;;;;;;;;;6190738;23;19997;-85
2022/05/16 05:16:43;;;;;;;10.13;2.85;;;;;;;;;;6192591;23;20024;-84
2022/05/16 05:19:09;;;;;;;6.63;2.85;;;;;;;;;;6193418;23;20076;-85
2022/05/16 05:21:35;;;;;;;6.38;2.55;;;;;;;;;;6194200;23;20012;-85
2022/05/16 05:24:01;;;;;;;8.52;3.30;;;;;;;;;;6192492;23;20055;-85
2022/05/16 05:26:27;;;;;;;9.45;3.00;;;;;;;;;;6193005;23;20001;-85
2022/05/16 05:28:53;;;;;;;10.10;3.05;;;;;;;;;;6194434;23;20023;-84
2022/05/16 05:31:25;;;;;;;6.30;2.80;;;;;;;;;;6193926;23;20431;-84
2022/05/16 05:33:51;;;;;;;6.20;3.03;;;;;;;;;;6190198;23;20001;-85
2022/05/16 05:36:17;;;;;;;9.23;2.88;;;;;;;;;;6190698;23;20099;-84
2022/05/16 05:38:43;;;;;;;7.05;3.00;;;;;;;;;;6190193;23;20019;-83
2022/05/16 05:41:10;;;;;;;6.68;2.67;;;;;;;;;;6189317;23;20001;-83
2022/05/16 05:43:36;;;;;;;12.88;3.60;;;;;;;;;;6188911;23;20005;-83
2022/05/16 05:46:03;;;;;;;7.95;3.30;;;;;;;;;;6188578;23;20001;-84
2022/05/16 05:48:29;;;;;;;6.88;2.70;;;;;;;;;;6189800;23;20096;-84
2022/05/16 05:50:55;;;;;;;7.18;2.70;;;;;;;;;;6210187;23;20005;-84
2022/05/16 05:53:21;;;;;;;8.85;2.47;;;;;;;;;;6187855;23;20071;-84
2022/05/16 05:55:47;;;;;;;10.60;2.42;;;;;;;;;;6211386;23;20477;-84
2022/05/16 05:58:14;;;;;;;9.05;3.08;;;;;;;;;;6212432;23;20012;-84
2022/05/16 06:00:40;;;;;;;8.60;3.22;;;;;;;;;;6189371;23;20013;-84
2022/05/16 06:03:06;;;;;;;10.75;3.10;;;;;;;;;;6207872;23;20009;-83
2022/05/16 06:05:32;;;;;;;8.55;2.90;;;;;;;;;;6187250;23;20064;-84
2022/05/16 06:07:58;;;;;;;10.48;2.75;;;;;;;;;;6210447;23;20376;-83
2022/05/16 06:10:24;;;;;;;5.97;3.40;;;;;;;;;;6186721;23;20036;-84
2022/05/16 06:12:50;;;;;;;12.82;3.55;;;;;;;;;;6187236;23;20069;-84
2022/05/16 06:15:17;;;;;;;10.05;2.83;;;;;;;;;;6187731;23;20004;-83
2022/05/16 06:17:43;;;;;;;6.15;2.38;;;;;;;;;;6187868;23;20001;-83
2022/05/16 06:20:11;;;;;;;9.30;3.40;;;;;;;;;;6186969;23;20036;-83
2022/05/16 06:22:38;;;;;;;14.00;3.80;;;;;;;;;;6210154;23;20005;-82
2022/05/16 06:27:53;;;;;;;9.88;3.72;;;;;;;;;;6187236;23;20151;-83
2022/05/16 06:30:19;;;;;;;8.88;3.45;;;;;;;;;;6186105;23;20412;-84
2022/05/16 06:32:46;;;;;;;8.25;3.03;;;;;;;;;;6187309;23;19997;-84
2022/05/16 06:35:12;;;;;;;9.27;3.08;;;;;;;;;;6185958;23;20455;-83
2022/05/16 06:37:38;;;;;;;5.88;2.45;;;;;;;;;;6186805;23;20016;-83
2022/05/16 06:40:05;;;;;;;11.07;2.63;;;;;;;;;;6186397;23;20044;-83
2022/05/16 06:42:31;;;;;;;9.80;3.20;;;;;;;;;;6209886;23;20020;-84
2022/05/16 06:44:57;;;;;;;14.60;3.72;;;;;;;;;;6187204;23;20005;-83
2022/05/16 06:47:24;;;;;;;6.63;2.80;;;;;;;;;;6210592;23;20459;-84
2022/05/16 06:49:51;;;;;;;11.32;3.40;;;;;;;;;;6211042;23;20001;-84
2022/05/16 06:52:17;;;;;;;9.90;3.25;;;;;;;;;;6187809;23;20071;-83
2022/05/16 06:54:43;;;;;;;10.80;3.20;;;;;;;;;;6188390;23;20009;-85
2022/05/16 06:57:09;;;;;;;9.75;3.05;;;;;;;;;;6187209;23;20004;-82
2022/05/16 06:59:35;;;;;;;9.35;3.25;;;;;;;;;;6210913;23;20343;-84
2022/05/16 07:02:02;;;;;;;11.65;2.70;;;;;;;;;;6186831;23;20059;-85
2022/05/16 07:04:28;;;;;;;9.75;3.08;;;;;;;;;;6210992;23;20005;-85
2022/05/16 07:06:54;;;;;;;6.80;2.97;;;;;;;;;;6186910;23;20069;-84
2022/05/16 07:09:20;;;;;;;7.95;3.60;;;;;;;;;;6187391;23;20059;-84
2022/05/16 07:11:46;;;;;;;10.30;2.88;;;;;;;;;;6186870;23;20327;-83
2022/05/16 07:14:12;;;;;;;11.98;3.13;;;;;;;;;;6186908;23;20004;-84
2022/05/16 07:16:38;;;;;;;10.23;3.35;;;;;;;;;;6187119;23;19997;-84
2022/05/16 07:19:04;;;;;;;9.95;3.08;;;;;;;;;;6186338;23;20028;-84
2022/05/16 07:21:30;;;;;;;7.53;3.25;;;;;;;;;;6186528;23;20080;-84
2022/05/16 07:23:56;;;;;;;7.53;2.70;;;;;;;;;;6186290;23;20431;-83
2022/05/16 07:29:07;;;;;;;28.63;3.85;;;;;;;;;;6185738;23;20071;-85
2022/05/16 07:31:33;;;;;;;9.15;3.15;;;;;;;;;;6185941;23;20001;-84
2022/05/16 07:34:00;;;;;;;8.55;2.85;;;;;;;;;;6185813;23;20098;-85
2022/05/16 07:36:26;;;;;;;9.63;2.72;;;;;;;;;;6185276;23;20016;-84
2022/05/16 07:38:53;;;;;;;9.68;3.17;;;;;;;;;;6210114;23;20001;-84
2022/05/16 07:41:19;;;;;;;5.72;2.97;;;;;;;;;;6208941;23;20494;-84
2022/05/16 07:43:45;;;;;;;8.90;3.35;;;;;;;;;;6185013;23;20002;-84
2022/05/16 07:46:11;;;;;;;7.22;2.80;;;;;;;;;;6184797;23;20309;-85
2022/05/16 07:48:37;;;;;;;10.68;3.05;;;;;;;;;;6190419;23;20012;-84
2022/05/16 07:51:03;;;;;;;13.00;3.47;;;;;;;;;;6190667;23;20006;-85
2022/05/16 07:53:29;;;;;;;8.45;2.83;;;;;;;;;;6214231;23;20241;-85
2022/05/16 07:55:56;;;;;;;8.02;2.90;;;;;;;;;;6191736;23;20058;-84
2022/05/16 07:58:23;;;;;;;10.75;3.15;;;;;;;;;;6190564;23;20001;-85
2022/05/16 08:00:50;;;;;;;8.50;2.80;;;;;;;;;;6213600;23;20008;-85
2022/05/16 08:03:18;;;;;;;9.45;3.03;;;;;;;;;;6210172;23;20056;-84
2022/05/16 08:05:44;;;;;;;6.80;3.25;;;;;;;;;;6187274;23;20009;-84
2022/05/16 08:10:56;;;;;;;7.93;2.30;;;;;;;;;;6189636;23;20016;-85
2022/05/16 08:13:22;;;;;;;9.55;3.50;;;;;;;;;;6185820;23;20001;-85
2022/05/16 08:15:48;;;;;;;6.28;3.03;;;;;;;;;;6187295;23;20009;-84
2022/05/16 08:18:14;;;;;;;9.45;3.72;;;;;;;;;;6208741;23;20012;-84
2022/05/16 08:20:42;;;;;;;5.60;2.72;;;;;;;;;;6184924;23;20016;-88
2022/05/16 08:23:09;;;;;;;5.10;2.80;;;;;;;;;;6207813;23;20505;-87
2022/05/16 08:25:35;;;;;;;10.18;3.13;;;;;;;;;;6184740;23;20005;-84
2022/05/16 08:28:01;;;;;;;12.30;3.28;;;;;;;;;;6185330;23;20063;-84
2022/05/16 08:30:28;;;;;;;9.75;3.13;;;;;;;;;;6185895;23;20431;-85
2022/05/16 08:32:56;;;;;;;8.90;3.40;;;;;;;;;;6212775;23;20494;-85
2022/05/16 08:35:23;;;;;;;8.77;2.85;;;;;;;;;;6192462;23;20459;-85
2022/05/16 08:40:37;;;;;;;12.48;3.83;;;;;;;;;;6191884;23;20151;-85
2022/05/16 08:43:11;;;;;;;10.48;3.38;;;;;;;;;;6193337;23;20009;-85
2022/05/16 08:45:39;;;;;;;5.55;2.78;;;;;;;;;;6214906;23;20015;-84
2022/05/16 08:48:18;;;;;;;7.85;3.15;;;;;;;;;;6214182;23;19997;-85
2022/05/16 08:50:49;;;;;;;5.72;2.65;;;;;;;;;;6214507;23;20099;-84
2022/05/16 08:53:24;;;;;;;6.97;3.03;;;;;;;;;;6216973;23;20004;-84
2022/05/16 08:55:56;;;;;;;8.10;2.95;;;;;;;;;;6214412;23;20063;-84
2022/05/16 08:58:25;;;;;;;10.00;2.85;;;;;;;;;;6190115;23;20490;-84
2022/05/16 09:00:53;;;;;;;5.97;2.40;;;;;;;;;;6190533;23;20088;-84
2022/05/16 09:03:22;;;;;;;7.13;3.05;;;;;;;;;;6192073;23;20045;-84
2022/05/16 09:05:55;;;;;;;9.18;2.45;;;;;;;;;;6192619;23;20005;-84
2022/05/16 09:08:33;;;;;;;5.90;2.95;;;;;;;;;;6213611;23;20343;-85
2022/05/16 09:10:59;;;;;;;7.78;3.15;;;;;;;;;;6190294;23;20005;-84
2022/05/16 09:13:42;;;;;;;6.90;3.17;;;;;;;;;;6191598;23;20010;-85
2022/05/16 09:16:23;;;;;;;11.55;2.83;;;;;;;;;;6213549;23;20022;-82
2022/05/16 09:18:49;;;;;;;;;;;;;;;;;;6212224;23;20432;-82
2022/05/16 09:21:34;;;;;;;8.98;2.70;;;;;;;;;;6189979;23;19907;-83
2022/05/16 09:24:26;;;;;;;10.88;3.10;;;;;;;;;;6193198;23;20005;-83
2022/05/16 09:27:05;;;;;;;10.05;2.88;;;;;;;;;;6157874;23;20343;-83
2022/05/16 09:29:41;;;;;;;6.53;2.67;;;;;;;;;;6192958;23;20013;-84
2022/05/16 09:32:21;;;;;;;15.57;2.72;;;;;;;;;;6192725;23;20001;-84
2022/05/16 09:34:47;;;;;;;7.10;2.55;;;;;;;;;;6215894;23;20001;-84
2022/05/16 09:37:13;;;;;;;9.10;2.55;;;;;;;;;;6191520;23;19998;-83
2022/05/16 09:39:39;;;;;;;10.25;2.75;;;;;;;;;;6191029;23;20030;-82
2022/05/16 09:42:16;;;;;;;9.77;2.22;;;;;;;;;;6214363;23;20064;-84
2022/05/16 09:44:45;;;;;;;12.57;2.63;;;;;;;;;;6192480;23;20060;-84
2022/05/16 09:47:15;;;;;;;6.55;2.67;;;;;;;;;;6193422;23;20002;-84
2022/05/16 09:49:41;;;;;;;6.82;2.55;;;;;;;;;;6193548;23;20172;-84
2022/05/16 09:52:14;;;;;;;12.25;3.38;;;;;;;;;;6214788;23;20036;-84
2022/05/16 09:54:40;;;;;;;5.90;2.60;;;;;;;;;;6192832;23;20008;-84
2022/05/16 09:57:16;;;;;;;7.05;3.15;;;;;;;;;;6192129;23;20079;-84
2022/05/16 09:59:51;;;;;;;3.63;2.17;;;;;;;;;;6191993;23;19997;-84
2022/05/16 10:02:23;;;;;;;9.93;2.15;;;;;;;;;;6215761;23;20001;-84
2022/05/16 10:04:52;;;;;;;6.75;2.33;;;;;;;;;;6191508;23;20001;-83
2022/05/16 10:07:22;;;;;;;5.75;2.42;;;;;;;;;;6191793;23;20447;-83
2022/05/16 10:09:49;;;;;;;8.75;2.83;;;;;;;;;;6191259;23;20004;-84
2022/05/16 10:12:17;;;;;;;7.47;1.52;;;;;;;;;;6213377;23;20001;-84
2022/05/16 10:14:43;;;;;;;4.95;1.60;;;;;;;;;;6191119;23;20129;-83
2022/05/16 10:17:11;;;;;;;3.13;1.10;;;;;;;;;;6193458;23;20005;-83
2022/05/16 10:19:39;;;;;;;11.27;1.95;;;;;;;;;;6184116;23;20542;-86
2022/05/16 10:22:15;;;;;;;6.93;1.48;;;;;;;;;;6185416;23;20004;-87
2022/05/16 10:24:53;;;;;;;3.70;1.27;;;;;;;;;;6184321;23;20024;-88
2022/05/16 10:27:32;;;;;;;7.00;1.88;;;;;;;;;;6184104;23;20012;-88
2022/05/16 10:30:00;;;;;;;3.40;1.52;;;;;;;;;;6183999;23;20004;-88
2022/05/16 10:35:28;;;;;;;9.45;1.67;;;;;;;;;;6186339;23;20067;-88
2022/05/16 10:37:56;;;;;;;3.35;1.55;;;;;;;;;;6209265;23;20093;-87
2022/05/16 10:40:26;;;;;;;8.65;1.50;;;;;;;;;;6185530;23;20024;-88
2022/05/16 10:42:55;;;;;;;5.25;1.30;;;;;;;;;;6209133;23;20011;-88
2022/05/16 10:45:23;;;;;;;4.53;1.73;;;;;;;;;;6185916;23;20001;-88
2022/05/16 10:48:09;;;;;;;6.18;1.83;;;;;;;;;;6185861;23;19996;-86
2022/05/16 10:51:01;;;;;;;6.53;1.65;;;;;;;;;;6185407;23;20031;-83
2022/05/16 10:53:31;;;;;;;8.25;2.20;;;;;;;;;;6185275;23;20024;-88
2022/05/16 10:55:57;;;;;;;7.78;1.77;;;;;;;;;;6185398;23;20009;-86
2022/05/16 10:58:42;;;;;;;3.72;1.20;;;;;;;;;;6185912;23;20005;-88
2022/05/16 11:01:20;;;;;;;4.43;1.40;;;;;;;;;;6186316;23;20013;-87
2022/05/16 11:04:24;;;;;;;5.20;1.20;;;;;;;;;;6209314;23;20016;-88
2022/05/16 11:06:53;;;;;;;3.78;1.50;;;;;;;;;;6123428;23;20012;-89
2022/05/16 11:09:38;;;;;;;6.05;1.40;;;;;;;;;;6123180;23;20002;-88
2022/05/16 11:12:08;;;;;;;5.88;1.40;;;;;;;;;;6161652;23;20055;-88
2022/05/16 11:14:46;;;;;;;7.05;1.40;;;;;;;;;;6209519;23;20084;-87
2022/05/16 11:17:35;;;;;;;4.80;1.38;;;;;;;;;;6185276;23;20461;-89
2022/05/16 11:20:10;;;;;;;5.72;1.85;;;;;;;;;;6176455;23;20016;-88
2022/05/16 11:22:39;;;;;;;2.80;1.20;;;;;;;;;;6208702;23;20522;-86
2022/05/16 11:25:15;;;;;;;5.53;1.67;;;;;;;;;;6208296;23;20009;-89
2022/05/16 11:27:57;;;;;;;6.47;1.98;;;;;;;;;;6207887;23;20324;-89
2022/05/16 11:30:42;;;;;;;6.50;1.70;;;;;;;;;;6208254;23;20001;-87
2022/05/16 11:33:20;;;;;;;4.50;1.77;;;;;;;;;;6208702;23;20431;-89
2022/05/16 11:36:01;;;;;;;4.78;1.60;;;;;;;;;;6208808;23;20443;-88
2022/05/16 11:38:46;;;;;;;8.93;2.55;;;;;;;;;;6184994;23;20001;-90
2022/05/16 11:41:34;;;;;;;6.35;1.83;;;;;;;;;;6208099;23;20036;-88
2022/05/16 11:44:14;;;;;;;10.02;2.20;;;;;;;;;;6185941;23;20378;-86
2022/05/16 11:46:44;;;;;;;6.25;1.45;;;;;;;;;;6208535;23;20009;-88
2022/05/16 11:49:29;;;;;;;6.95;1.92;;;;;;;;;;6184639;23;20004;-89
2022/05/16 11:52:07;;;;;;;6.15;1.60;;;;;;;;;;6184691;23;20001;-88
2022/05/16 11:54:39;;;;;;;10.32;2.10;;;;;;;;;;6185624;23;20059;-85
2022/05/16 12:02:59;;;;;;;8.05;1.98;;;;;;;;;;6195079;23;20092;-89
2022/05/16 12:05:27;;;;;;;5.65;1.75;;;;;;;;;;6184801;23;20005;-88
2022/05/16 12:08:12;;;;;;;3.25;1.55;;;;;;;;;;6184808;23;20011;-88
2022/05/16 12:11:09;;;;;;;6.20;1.23;;;;;;;;;;6207705;23;20012;-90
2022/05/16 12:13:38;;;;;;;3.38;1.40;;;;;;;;;;6106040;23;20432;-88
2022/05/16 12:16:14;;;;;;;8.85;1.30;;;;;;;;;;6208325;23;20028;-89
2022/05/16 12:18:45;;;;;;;4.35;1.75;;;;;;;;;;6184663;23;20440;-89
2022/05/16 12:21:14;;;;;;;;;;;;;;;;;;6208413;23;20498;-89
2022/05/16 12:23:49;;;;;;;3.25;1.58;;;;;;;;;;6184514;23;19900;-88
2022/05/16 12:26:38;;;;;;;6.97;1.42;;;;;;;;;;6184583;23;20084;-89
2022/05/16 12:29:11;;;;;;;5.43;1.40;;;;;;;;;;6143165;23;20033;-88
2022/05/16 12:31:43;;;;;;;2.72;1.40;;;;;;;;;;6207994;23;20351;-88
2022/05/16 12:34:09;;;;;;;4.75;1.63;;;;;;;;;;6184519;23;19997;-88
2022/05/16 12:36:35;;;;;;;6.93;1.85;;;;;;;;;;6184373;23;20144;-86
2022/05/16 12:39:18;;;;;;;2.80;1.48;;;;;;;;;;6184430;23;20334;-88
2022/05/16 12:42:01;;;;;;;6.30;1.45;;;;;;;;;;6185767;23;20005;-88
2022/05/16 12:44:48;;;;;;;4.95;1.73;;;;;;;;;;6184654;23;20016;-88
2022/05/16 12:47:33;;;;;;;5.32;1.58;;;;;;;;;;6207551;23;20000;-88
2022/05/16 12:50:07;;;;;;;3.80;1.60;;;;;;;;;;6184366;23;19997;-88
2022/05/16 12:52:36;;;;;;;7.78;1.95;;;;;;;;;;6184262;23;20009;-88
2022/05/16 12:55:07;;;;;;;3.60;1.98;;;;;;;;;;6207903;23;20015;-86
2022/05/16 12:57:33;;;;;;;6.32;2.00;;;;;;;;;;6184431;23;20005;-88
2022/05/16 13:00:16;;;;;;;5.32;1.77;;;;;;;;;;6184047;23;20466;-88
2022/05/16 13:02:53;;;;;;;6.93;2.08;;;;;;;;;;6184570;23;20005;-89
2022/05/16 13:05:21;;;;;;;7.38;1.90;;;;;;;;;;6207480;23;20008;-89
2022/05/16 13:08:07;;;;;;;6.35;2.00;;;;;;;;;;6183735;23;20025;-88
2022/05/16 13:10:39;;;;;;;6.20;2.08;;;;;;;;;;6173036;23;19997;-88
2022/05/16 13:13:17;;;;;;;4.28;1.95;;;;;;;;;;6184261;23;20005;-90
2022/05/16 13:15:43;;;;;;;4.15;2.00;;;;;;;;;;6207931;23;20005;-90
2022/05/16 13:18:19;;;;;;;5.60;2.10;;;;;;;;;;6207737;23;20050;-87
2022/05/16 13:20:45;;;;;;;9.68;2.70;;;;;;;;;;6183715;23;20039;-88
2022/05/16 13:23:13;;;;;;;6.72;1.88;;;;;;;;;;6207341;23;20052;-87
2022/05/16 13:31:11;;;;;;;5.50;2.17;;;;;;;;;;6184463;23;20048;-87
2022/05/16 13:33:39;;;;;;;3.42;1.90;;;;;;;;;;6184788;23;19997;-86
2022/05/16 13:36:18;;;;;;;9.95;2.00;;;;;;;;;;6184536;23;20005;-86
2022/05/16 13:38:46;;;;;;;5.65;2.00;;;;;;;;;;6184304;23;20005;-86
2022/05/16 13:41:12;;;;;;;7.00;1.80;;;;;;;;;;6184294;23;20036;-88
2022/05/16 13:43:39;;;;;;;12.52;2.75;;;;;;;;;;6184192;23;20391;-86
2022/05/16 13:46:10;;;;;;;7.43;2.00;;;;;;;;;;6184054;23;20070;-87
2022/05/16 13:48:37;;;;;;;7.88;2.33;;;;;;;;;;6184267;23;20076;-84
2022/05/16 13:51:03;;;;;;;5.82;2.17;;;;;;;;;;6185187;23;20001;-87
2022/05/16 13:53:30;;;;;;;8.57;3.00;;;;;;;;;;6209010;23;20055;-88
2022/05/16 13:55:56;;;;;;;4.82;2.30;;;;;;;;;;6209566;23;20015;-88
2022/05/16 13:58:23;;;;;;;8.52;2.15;;;;;;;;;;6209705;23;20016;-90
2022/05/16 14:00:50;;;;;;;5.40;2.33;;;;;;;;;;6186115;23;20096;-88
2022/05/16 14:03:19;;;;;;;3.75;2.58;;;;;;;;;;6209423;23;20443;-88
2022/05/16 14:05:46;;;;;;;8.23;3.00;;;;;;;;;;6209124;23;20089;-92
2022/05/16 14:08:20;;;;;;;4.97;2.33;;;;;;;;;;6211053;23;20009;-88
2022/05/16 14:10:46;;;;;;;4.72;2.20;;;;;;;;;;6188299;23;20339;-88
2022/05/16 14:13:40;;;;;;;4.13;2.65;;;;;;;;;;6186932;23;20011;-88
2022/05/16 14:16:08;;;;;;;6.50;3.22;;;;;;;;;;6186079;23;20063;-88
2022/05/16 14:18:42;;;;;;;2.90;1.98;;;;;;;;;;6210805;23;20005;-88
2022/05/16 14:21:28;;;;;;;6.38;2.22;;;;;;;;;;6186100;23;20009;-89
2022/05/16 14:24:08;;;;;;;6.63;2.80;;;;;;;;;;6186037;23;20012;-88
2022/05/16 14:26:40;;;;;;;5.70;2.28;;;;;;;;;;6186156;23;20005;-87
2022/05/16 14:29:17;;;;;;;3.13;2.05;;;;;;;;;;6208887;23;20012;-88
2022/05/16 14:31:52;;;;;;;6.68;2.25;;;;;;;;;;6209464;23;20092;-89
2022/05/16 14:34:29;;;;;;;5.30;2.20;;;;;;;;;;6207560;23;20059;-89
2022/05/16 14:37:04;;;;;;;5.97;2.85;;;;;;;;;;6185266;23;20005;-89
2022/05/16 14:39:44;;;;;;;8.55;2.83;;;;;;;;;;6185528;23;20072;-89
2022/05/16 14:42:18;;;;;;;6.90;3.17;;;;;;;;;;6185756;23;20001;-90
2022/05/16 14:44:58;;;;;;;7.28;2.63;;;;;;;;;;6205210;23;20012;-86
2022/05/16 14:47:43;;;;;;;3.90;3.00;;;;;;;;;;6209263;23;20001;-89
2022/05/16 14:50:14;;;;;;;5.63;2.83;;;;;;;;;;6185377;23;20224;-89
2022/05/16 14:53:05;;;;;;;4.43;2.45;;;;;;;;;;6208827;23;20001;-89
2022/05/16 14:55:39;;;;;;;3.60;2.25;;;;;;;;;;6173461;23;20009;-89
2022/05/16 14:58:06;;;;;;;6.13;2.70;;;;;;;;;;6185637;23;20001;-89
2022/05/16 15:06:18;;;;;;;4.57;2.22;;;;;;;;;;6184849;23;20039;-89
2022/05/16 15:08:45;;;;;;;5.82;2.50;;;;;;;;;;6208988;23;20335;-89
2022/05/16 15:11:17;;;;;;;6.38;2.33;;;;;;;;;;6208695;23;19997;-89
2022/05/16 15:13:49;;;;;;;6.05;2.10;;;;;;;;;;6185579;23;20008;-89
2022/05/16 15:16:23;;;;;;;5.93;2.92;;;;;;;;;;6209049;23;20005;-89
2022/05/16 15:18:49;;;;;;;7.13;2.33;;;;;;;;;;6207945;23;20048;-89
2022/05/16 15:21:17;;;;;;;5.75;2.70;;;;;;;;;;6185385;23;20649;-89
2022/05/16 15:23:45;;;;;;;7.72;2.70;;;;;;;;;;6172443;23;20012;-90
2022/05/16 15:26:27;;;;;;;8.27;2.80;;;;;;;;;;6208481;23;20005;-89
2022/05/16 15:28:56;;;;;;;7.78;2.53;;;;;;;;;;6184987;23;20017;-88
2022/05/16 15:31:22;;;;;;;8.63;2.90;;;;;;;;;;6185145;23;19997;-89
2022/05/16 15:33:56;;;;;;;7.35;3.35;;;;;;;;;;6208623;23;20084;-89
2022/05/16 15:36:25;;;;;;;6.60;2.67;;;;;;;;;;6185365;23;20001;-89
2022/05/16 15:38:51;;;;;;;6.45;2.60;;;;;;;;;;6184244;23;20059;-89
2022/05/16 15:41:20;;;;;;;6.13;2.40;;;;;;;;;;6186875;23;20012;-88
2022/05/16 15:43:47;;;;;;;9.52;2.90;;;;;;;;;;6208761;23;20009;-87
2022/05/16 15:46:16;;;;;;;7.32;2.58;;;;;;;;;;6184274;23;20005;-87
2022/05/16 15:48:42;;;;;;;6.78;2.70;;;;;;;;;;6208622;23;20005;-87
2022/05/16 15:51:12;;;;;;;4.45;2.83;;;;;;;;;;6192446;23;20001;-88